Etusivu
METAR-TAF:

METAR-TAF

Lentoasemat :

Marshall, Missouri, Yhdysvallat

Leveyspiiri: 39-05-44N, Pituuspiiri: 093-12-10W, korkeus merenpinnasta: 237 m

Tämänhetkinen sää

Tämä raportti tehtiin 17 tuntia ja 51 minuuttia sitten, kello 15.35 UTC
Tuuli 5 kn lännestä/luoteesta
Lämpötila -3°C
Kosteus 100%
Ilmanpaine 1018 hPa
Näkyvyys: 0.8 km
Pilvistä 200 ft:n korkeudessa

METAR: KMHL 271535Z AUTO 29005KT 1/2SM OVC002 M03/M03 A3005 RMK AO2 TSNO PWINO

Aika: 03:26 (09:26 UTC)


TAF: puuttuu

Säähavainnot ja -ennusteet yli 4000 lentoasemalta (METAR- ja TAF-raportit).

Käytössä olevat sääasemat on merkitty karttaan keltaisilla ja punaisilla pisteillä.

Aseta hiiri pisteen päälle nähdäksesi sääaseman nimen.

Klikkaa sitten nähdäksesi säähavainnot ja -ennusteet.

Kartan vaihtaminen: klikkaa mustalla rastilla varustettuja vihreitä pisteitä, niin voit zoomata sisään; viivalla varustettua vihreää pistettä, niin voit zoomata ulos tai vihreitä nuolia, niin pääset viereisille kartoille.


METAR-TAF: